sensor_id;sensor_type;location;lat;lon;timestamp;pressure;altitude;pressure_sealevel;temperature
70435;BMP280;57876;47.792;12.960;2022-07-11T00:02:12;97467.94;;;19.30
70435;BMP280;57876;47.792;12.960;2022-07-11T00:04:36;97461.72;;;19.30
70435;BMP280;57876;47.792;12.960;2022-07-11T00:07:02;97458.97;;;19.30
70435;BMP280;57876;47.792;12.960;2022-07-11T00:09:27;97458.81;;;19.28
70435;BMP280;57876;47.792;12.960;2022-07-11T00:11:52;97456.81;;;19.28
70435;BMP280;57876;47.792;12.960;2022-07-11T00:14:17;97453.47;;;19.30
70435;BMP280;57876;47.792;12.960;2022-07-11T00:16:42;97455.53;;;19.29
70435;BMP280;57876;47.792;12.960;2022-07-11T00:19:06;97455.53;;;19.29
70435;BMP280;57876;47.792;12.960;2022-07-11T00:21:31;97444.56;;;19.29
70435;BMP280;57876;47.792;12.960;2022-07-11T00:23:56;97446.56;;;19.29
70435;BMP280;57876;47.792;12.960;2022-07-11T00:26:21;97452.78;;;19.29
70435;BMP280;57876;47.792;12.960;2022-07-11T00:28:45;97447.84;;;19.28
70435;BMP280;57876;47.792;12.960;2022-07-11T00:31:09;97454.06;;;19.28
70435;BMP280;57876;47.792;12.960;2022-07-11T00:33:34;97452.63;;;19.27
70435;BMP280;57876;47.792;12.960;2022-07-11T00:35:58;97449.88;;;19.27
70435;BMP280;57876;47.792;12.960;2022-07-11T00:38:23;97447.13;;;19.27
70435;BMP280;57876;47.792;12.960;2022-07-11T00:40:47;97447.13;;;19.27
70435;BMP280;57876;47.792;12.960;2022-07-11T00:43:12;97434.69;;;19.26
70435;BMP280;57876;47.792;12.960;2022-07-11T00:45:36;97433.22;;;19.25
70435;BMP280;57876;47.792;12.960;2022-07-11T00:48:00;97441.44;;;19.25
70435;BMP280;57876;47.792;12.960;2022-07-11T00:50:25;97429.78;;;19.25
70435;BMP280;57876;47.792;12.960;2022-07-11T00:52:51;97429.78;;;19.25
70435;BMP280;57876;47.792;12.960;2022-07-11T00:55:16;97429.03;;;19.24
70435;BMP280;57876;47.792;12.960;2022-07-11T00:57:41;97429.63;;;19.23
70435;BMP280;57876;47.792;12.960;2022-07-11T01:00:06;97429.63;;;19.23
70435;BMP280;57876;47.792;12.960;2022-07-11T01:02:31;97421.38;;;19.23
70435;BMP280;57876;47.792;12.960;2022-07-11T01:04:56;97420.63;;;19.22
70435;BMP280;57876;47.792;12.960;2022-07-11T01:07:21;97424.84;;;19.23
70435;BMP280;57876;47.792;12.960;2022-07-11T01:09:45;97425.41;;;19.22
70435;BMP280;57876;47.792;12.960;2022-07-11T01:12:11;97432.91;;;19.21
70435;BMP280;57876;47.792;12.960;2022-07-11T01:14:35;97426.13;;;19.22
70435;BMP280;57876;47.792;12.960;2022-07-11T01:17:00;97421.91;;;19.21
70435;BMP280;57876;47.792;12.960;2022-07-11T01:19:24;97420.63;;;19.22
70435;BMP280;57876;47.792;12.960;2022-07-11T01:21:50;97416.44;;;19.21
70435;BMP280;57876;47.792;12.960;2022-07-11T01:24:15;97415.75;;;19.21
70435;BMP280;57876;47.792;12.960;2022-07-11T01:26:40;97409.53;;;19.20
70435;BMP280;57876;47.792;12.960;2022-07-11T01:29:07;97414.28;;;19.20
70435;BMP280;57876;47.792;12.960;2022-07-11T01:31:31;97410.25;;;19.21
70435;BMP280;57876;47.792;12.960;2022-07-11T01:33:57;97419.19;;;19.21
70435;BMP280;57876;47.792;12.960;2022-07-11T01:36:21;97410.81;;;19.19
70435;BMP280;57876;47.792;12.960;2022-07-11T01:38:45;97419.03;;;19.19
70435;BMP280;57876;47.792;12.960;2022-07-11T01:41:10;97410.09;;;19.19
70435;BMP280;57876;47.792;12.960;2022-07-11T01:43:35;97398.38;;;19.18
70435;BMP280;57876;47.792;12.960;2022-07-11T01:45:59;97400.38;;;19.18
70435;BMP280;57876;47.792;12.960;2022-07-11T01:48:24;97406.59;;;19.18
70435;BMP280;57876;47.792;12.960;2022-07-11T01:50:49;97403.13;;;19.18
70435;BMP280;57876;47.792;12.960;2022-07-11T01:53:13;97398.22;;;19.16
70435;BMP280;57876;47.792;12.960;2022-07-11T01:55:38;97400.97;;;19.16
70435;BMP280;57876;47.792;12.960;2022-07-11T01:58:02;97393.28;;;19.15
70435;BMP280;57876;47.792;12.960;2022-07-11T02:00:27;97392.56;;;19.14
70435;BMP280;57876;47.792;12.960;2022-07-11T02:02:51;97393.84;;;19.13
70435;BMP280;57876;47.792;12.960;2022-07-11T02:05:16;97391.13;;;19.13
70435;BMP280;57876;47.792;12.960;2022-07-11T02:07:40;97386.91;;;19.12
70435;BMP280;57876;47.792;12.960;2022-07-11T02:10:23;97390.38;;;19.13
70435;BMP280;57876;47.792;12.960;2022-07-11T02:12:47;97391.69;;;19.12
70435;BMP280;57876;47.792;12.960;2022-07-11T02:15:11;97397.19;;;19.12
70435;BMP280;57876;47.792;12.960;2022-07-11T02:17:36;97393.72;;;19.11
70435;BMP280;57876;47.792;12.960;2022-07-11T02:20:00;97399.19;;;19.11
70435;BMP280;57876;47.792;12.960;2022-07-11T02:22:24;97389.50;;;19.10
70435;BMP280;57876;47.792;12.960;2022-07-11T02:24:49;97389.50;;;19.10
70435;BMP280;57876;47.792;12.960;2022-07-11T02:27:14;97389.31;;;19.08
70435;BMP280;57876;47.792;12.960;2022-07-11T02:29:38;97396.84;;;19.08
70435;BMP280;57876;47.792;12.960;2022-07-11T02:32:02;97386.56;;;19.08
70435;BMP280;57876;47.792;12.960;2022-07-11T02:34:27;97386.56;;;19.08
70435;BMP280;57876;47.792;12.960;2022-07-11T02:36:51;97391.38;;;19.08
70435;BMP280;57876;47.792;12.960;2022-07-11T02:39:16;97390.63;;;19.07
70435;BMP280;57876;47.792;12.960;2022-07-11T02:41:40;97396.13;;;19.07
70435;BMP280;57876;47.792;12.960;2022-07-11T02:44:05;97387.16;;;19.07
70435;BMP280;57876;47.792;12.960;2022-07-11T02:46:29;97396.69;;;19.06
70435;BMP280;57876;47.792;12.960;2022-07-11T02:48:53;97396.69;;;19.06
70435;BMP280;57876;47.792;12.960;2022-07-11T02:51:18;97390.44;;;19.05
70435;BMP280;57876;47.792;12.960;2022-07-11T02:53:42;97390.44;;;19.05
70435;BMP280;57876;47.792;12.960;2022-07-11T02:56:07;97395.94;;;19.05
70435;BMP280;57876;47.792;12.960;2022-07-11T02:58:31;97392.47;;;19.05
70435;BMP280;57876;47.792;12.960;2022-07-11T03:00:55;97397.22;;;19.04
70435;BMP280;57876;47.792;12.960;2022-07-11T03:03:20;97395.94;;;19.05
70435;BMP280;57876;47.792;12.960;2022-07-11T03:05:44;97390.44;;;19.05
70435;BMP280;57876;47.792;12.960;2022-07-11T03:08:09;97394.47;;;19.04
70435;BMP280;57876;47.792;12.960;2022-07-11T03:10:33;97391.75;;;19.04
70435;BMP280;57876;47.792;12.960;2022-07-11T03:12:57;97395.22;;;19.05
70435;BMP280;57876;47.792;12.960;2022-07-11T03:15:22;97389.75;;;19.05
70435;BMP280;57876;47.792;12.960;2022-07-11T03:17:46;97399.97;;;19.04
70435;BMP280;57876;47.792;12.960;2022-07-11T03:20:11;97392.31;;;19.03
70435;BMP280;57876;47.792;12.960;2022-07-11T03:22:36;97399.81;;;19.02
70435;BMP280;57876;47.792;12.960;2022-07-11T03:25:01;97398.53;;;19.03
70435;BMP280;57876;47.792;12.960;2022-07-11T03:27:29;97397.09;;;19.02
70435;BMP280;57876;47.792;12.960;2022-07-11T03:29:53;97400.53;;;19.03
70435;BMP280;57876;47.792;12.960;2022-07-11T03:32:18;97396.50;;;19.04
70435;BMP280;57876;47.792;12.960;2022-07-11T03:34:44;97399.09;;;19.02
70435;BMP280;57876;47.792;12.960;2022-07-11T03:37:28;97396.34;;;19.02
70435;BMP280;57876;47.792;12.960;2022-07-11T03:39:53;97406.59;;;19.01
70435;BMP280;57876;47.792;12.960;2022-07-11T03:42:17;97412.63;;;19.00
70435;BMP280;57876;47.792;12.960;2022-07-11T03:44:41;97411.34;;;19.01
70435;BMP280;57876;47.792;12.960;2022-07-11T03:47:06;97405.13;;;19.00
70435;BMP280;57876;47.792;12.960;2022-07-11T03:49:30;97405.84;;;19.01
70435;BMP280;57876;47.792;12.960;2022-07-11T03:51:55;97404.38;;;19.00
70435;BMP280;57876;47.792;12.960;2022-07-11T03:54:19;97401.66;;;19.00
70435;BMP280;57876;47.792;12.960;2022-07-11T03:56:43;97396.16;;;19.00
70435;BMP280;57876;47.792;12.960;2022-07-11T03:59:08;97405.13;;;19.00
70435;BMP280;57876;47.792;12.960;2022-07-11T04:01:33;97398.91;;;19.00
70435;BMP280;57876;47.792;12.960;2022-07-11T04:03:58;97398.19;;;18.99
70435;BMP280;57876;47.792;12.960;2022-07-11T04:06:22;97401.66;;;19.00
70435;BMP280;57876;47.792;12.960;2022-07-11T04:08:46;97387.22;;;18.99
70435;BMP280;57876;47.792;12.960;2022-07-11T04:11:11;97390.69;;;19.00
70435;BMP280;57876;47.792;12.960;2022-07-11T04:13:35;97388.69;;;19.00
70435;BMP280;57876;47.792;12.960;2022-07-11T04:16:00;97396.16;;;19.00
70435;BMP280;57876;47.792;12.960;2022-07-11T04:18:24;97389.97;;;18.99
70435;BMP280;57876;47.792;12.960;2022-07-11T04:20:49;97384.47;;;18.99
70435;BMP280;57876;47.792;12.960;2022-07-11T04:23:13;97385.78;;;18.98
70435;BMP280;57876;47.792;12.960;2022-07-11T04:25:38;97391.28;;;18.98
70435;BMP280;57876;47.792;12.960;2022-07-11T04:28:02;97389.25;;;18.99
70435;BMP280;57876;47.792;12.960;2022-07-11T04:30:27;97398.91;;;19.00
70435;BMP280;57876;47.792;12.960;2022-07-11T04:32:51;97392.72;;;18.99
70435;BMP280;57876;47.792;12.960;2022-07-11T04:35:16;97392.72;;;18.99
70435;BMP280;57876;47.792;12.960;2022-07-11T04:37:41;97408.44;;;18.99
70435;BMP280;57876;47.792;12.960;2022-07-11T04:40:06;97405.69;;;18.99
70435;BMP280;57876;47.792;12.960;2022-07-11T04:42:30;97403.53;;;18.97
70435;BMP280;57876;47.792;12.960;2022-07-11T04:44:54;97410.47;;;18.98
70435;BMP280;57876;47.792;12.960;2022-07-11T04:47:19;97405.00;;;18.98
70435;BMP280;57876;47.792;12.960;2022-07-11T04:49:43;97396.03;;;18.98
70435;BMP280;57876;47.792;12.960;2022-07-11T04:52:10;97404.25;;;18.98
70435;BMP280;57876;47.792;12.960;2022-07-11T04:54:35;97414.50;;;18.97
70435;BMP280;57876;47.792;12.960;2022-07-11T04:56:59;97410.47;;;18.98
70435;BMP280;57876;47.792;12.960;2022-07-11T04:59:23;97406.28;;;18.97
70435;BMP280;57876;47.792;12.960;2022-07-11T05:01:48;97409.03;;;18.97
70435;BMP280;57876;47.792;12.960;2022-07-11T05:04:13;97413.22;;;18.98
70435;BMP280;57876;47.792;12.960;2022-07-11T05:06:37;97409.72;;;18.98
70435;BMP280;57876;47.792;12.960;2022-07-11T05:09:02;97410.47;;;18.98
70435;BMP280;57876;47.792;12.960;2022-07-11T05:11:28;97417.38;;;18.99
70435;BMP280;57876;47.792;12.960;2022-07-11T05:13:52;97418.69;;;18.98
70435;BMP280;57876;47.792;12.960;2022-07-11T05:16:16;97420.13;;;18.99
70435;BMP280;57876;47.792;12.960;2022-07-11T05:18:41;97425.63;;;18.99
70435;BMP280;57876;47.792;12.960;2022-07-11T05:21:05;97428.38;;;18.99
70435;BMP280;57876;47.792;12.960;2022-07-11T05:23:30;97424.34;;;19.00
70435;BMP280;57876;47.792;12.960;2022-07-11T05:25:54;97422.31;;;19.01
70435;BMP280;57876;47.792;12.960;2022-07-11T05:28:18;97431.28;;;19.01
70435;BMP280;57876;47.792;12.960;2022-07-11T05:30:43;97425.78;;;19.01
70435;BMP280;57876;47.792;12.960;2022-07-11T05:33:13;97427.25;;;19.02
70435;BMP280;57876;47.792;12.960;2022-07-11T05:35:37;97434.03;;;19.01
70435;BMP280;57876;47.792;12.960;2022-07-11T05:38:01;97434.03;;;19.01
70435;BMP280;57876;47.792;12.960;2022-07-11T05:40:26;97432.72;;;19.02
70435;BMP280;57876;47.792;12.960;2022-07-11T05:42:50;97436.94;;;19.03
70435;BMP280;57876;47.792;12.960;2022-07-11T05:45:14;97434.72;;;19.02
70435;BMP280;57876;47.792;12.960;2022-07-11T05:47:39;97440.97;;;19.02
70435;BMP280;57876;47.792;12.960;2022-07-11T05:50:10;97436.19;;;19.03
70435;BMP280;57876;47.792;12.960;2022-07-11T05:52:34;97434.72;;;19.02
70435;BMP280;57876;47.792;12.960;2022-07-11T05:54:59;97434.19;;;19.03
70435;BMP280;57876;47.792;12.960;2022-07-11T05:57:23;97435.63;;;19.04
70435;BMP280;57876;47.792;12.960;2022-07-11T05:59:48;97440.38;;;19.04
70435;BMP280;57876;47.792;12.960;2022-07-11T06:02:12;97441.84;;;19.05
70435;BMP280;57876;47.792;12.960;2022-07-11T06:04:37;97445.31;;;19.05
70435;BMP280;57876;47.792;12.960;2022-07-11T06:07:02;97441.84;;;19.05
70435;BMP280;57876;47.792;12.960;2022-07-11T06:09:26;97445.31;;;19.05
70435;BMP280;57876;47.792;12.960;2022-07-11T06:11:50;97437.81;;;19.06
70435;BMP280;57876;47.792;12.960;2022-07-11T06:14:16;97444.03;;;19.06
70435;BMP280;57876;47.792;12.960;2022-07-11T06:16:40;97434.34;;;19.05
70435;BMP280;57876;47.792;12.960;2022-07-11T06:19:12;97433.06;;;19.06
70435;BMP280;57876;47.792;12.960;2022-07-11T06:21:38;97438.53;;;19.06
70435;BMP280;57876;47.792;12.960;2022-07-11T06:24:03;97439.28;;;19.07
70435;BMP280;57876;47.792;12.960;2022-07-11T06:26:27;97435.94;;;19.08
70435;BMP280;57876;47.792;12.960;2022-07-11T06:28:52;97431.91;;;19.09
70435;BMP280;57876;47.792;12.960;2022-07-11T06:31:16;97431.91;;;19.09
70435;BMP280;57876;47.792;12.960;2022-07-11T06:33:41;97439.59;;;19.11
70435;BMP280;57876;47.792;12.960;2022-07-11T06:36:06;97434.13;;;19.11
70435;BMP280;57876;47.792;12.960;2022-07-11T06:38:31;97435.56;;;19.12
70435;BMP280;57876;47.792;12.960;2022-07-11T06:40:56;97434.25;;;19.13
70435;BMP280;57876;47.792;12.960;2022-07-11T06:43:20;97429.53;;;19.13
70435;BMP280;57876;47.792;12.960;2022-07-11T06:45:45;97437.19;;;19.15
70435;BMP280;57876;47.792;12.960;2022-07-11T06:48:10;97433.16;;;19.16
70435;BMP280;57876;47.792;12.960;2022-07-11T06:50:37;97431.84;;;19.17
70435;BMP280;57876;47.792;12.960;2022-07-11T06:53:13;97432.56;;;19.17
70435;BMP280;57876;47.792;12.960;2022-07-11T06:55:38;97433.91;;;19.16
70435;BMP280;57876;47.792;12.960;2022-07-11T06:58:02;97434.03;;;19.18
70435;BMP280;57876;47.792;12.960;2022-07-11T07:00:35;97435.50;;;19.19
70435;BMP280;57876;47.792;12.960;2022-07-11T07:03:03;97438.25;;;19.19
70435;BMP280;57876;47.792;12.960;2022-07-11T07:05:32;97440.97;;;19.19
70435;BMP280;57876;47.792;12.960;2022-07-11T07:07:57;97439.69;;;19.20
70435;BMP280;57876;47.792;12.960;2022-07-11T07:10:22;97436.25;;;19.20
70435;BMP280;57876;47.792;12.960;2022-07-11T07:12:46;97441.13;;;19.21
70435;BMP280;57876;47.792;12.960;2022-07-11T07:15:11;97442.59;;;19.22
70435;BMP280;57876;47.792;12.960;2022-07-11T07:17:36;97441.28;;;19.23
70435;BMP280;57876;47.792;12.960;2022-07-11T07:20:00;97445.50;;;19.24
70435;BMP280;57876;47.792;12.960;2022-07-11T07:22:24;97449.53;;;19.23
70435;BMP280;57876;47.792;12.960;2022-07-11T07:24:49;97443.50;;;19.25
70435;BMP280;57876;47.792;12.960;2022-07-11T07:27:13;97437.44;;;19.26
70435;BMP280;57876;47.792;12.960;2022-07-11T07:29:38;97435.28;;;19.25
70435;BMP280;57876;47.792;12.960;2022-07-11T07:32:03;97434.69;;;19.26
70435;BMP280;57876;47.792;12.960;2022-07-11T07:34:28;97427.19;;;19.27
70435;BMP280;57876;47.792;12.960;2022-07-11T07:36:52;97425.19;;;19.27
70435;BMP280;57876;47.792;12.960;2022-07-11T07:39:17;97425.91;;;19.28
70435;BMP280;57876;47.792;12.960;2022-07-11T07:41:41;97433.41;;;19.27
70435;BMP280;57876;47.792;12.960;2022-07-11T07:44:06;97431.38;;;19.28
70435;BMP280;57876;47.792;12.960;2022-07-11T07:46:31;97436.16;;;19.27
70435;BMP280;57876;47.792;12.960;2022-07-11T07:48:56;97430.84;;;19.29
70435;BMP280;57876;47.792;12.960;2022-07-11T07:51:20;97435.72;;;19.31
70435;BMP280;57876;47.792;12.960;2022-07-11T07:53:45;97432.44;;;19.32
70435;BMP280;57876;47.792;12.960;2022-07-11T07:56:10;97428.41;;;19.33
70435;BMP280;57876;47.792;12.960;2022-07-11T07:58:34;97421.59;;;19.34
70435;BMP280;57876;47.792;12.960;2022-07-11T08:00:58;97420.31;;;19.35
70435;BMP280;57876;47.792;12.960;2022-07-11T08:03:42;97417.03;;;19.37
70435;BMP280;57876;47.792;12.960;2022-07-11T08:06:06;97408.81;;;19.37
70435;BMP280;57876;47.792;12.960;2022-07-11T08:08:30;97411.53;;;19.37
70435;BMP280;57876;47.792;12.960;2022-07-11T08:10:55;97407.53;;;19.38
70435;BMP280;57876;47.792;12.960;2022-07-11T08:13:20;97411.69;;;19.38
70435;BMP280;57876;47.792;12.960;2022-07-11T08:15:44;97407.66;;;19.39
70435;BMP280;57876;47.792;12.960;2022-07-11T08:18:08;97405.63;;;19.40
70435;BMP280;57876;47.792;12.960;2022-07-11T08:20:33;97396.13;;;19.41
70435;BMP280;57876;47.792;12.960;2022-07-11T08:23:02;97404.38;;;19.41
70435;BMP280;57876;47.792;12.960;2022-07-11T08:25:28;97399.59;;;19.41
70435;BMP280;57876;47.792;12.960;2022-07-11T08:27:52;97387.91;;;19.41
70435;BMP280;57876;47.792;12.960;2022-07-11T08:30:16;97393.41;;;19.41
70435;BMP280;57876;47.792;12.960;2022-07-11T08:32:41;97391.38;;;19.41
70435;BMP280;57876;47.792;12.960;2022-07-11T08:35:06;97391.91;;;19.40
70435;BMP280;57876;47.792;12.960;2022-07-11T08:37:31;97387.16;;;19.40
70435;BMP280;57876;47.792;12.960;2022-07-11T08:39:55;97384.97;;;19.39
70435;BMP280;57876;47.792;12.960;2022-07-11T08:42:19;97384.97;;;19.39
70435;BMP280;57876;47.792;12.960;2022-07-11T08:44:44;97384.97;;;19.39
70435;BMP280;57876;47.792;12.960;2022-07-11T08:47:09;97387.56;;;19.37
70435;BMP280;57876;47.792;12.960;2022-07-11T08:49:33;97378.00;;;19.38
70435;BMP280;57876;47.792;12.960;2022-07-11T08:51:58;97388.84;;;19.36
70435;BMP280;57876;47.792;12.960;2022-07-11T08:54:22;97387.56;;;19.37
70435;BMP280;57876;47.792;12.960;2022-07-11T08:56:47;97391.75;;;19.38
70435;BMP280;57876;47.792;12.960;2022-07-11T08:59:15;97388.31;;;19.38
70435;BMP280;57876;47.792;12.960;2022-07-11T09:01:44;97378.00;;;19.38
70435;BMP280;57876;47.792;12.960;2022-07-11T09:04:09;97384.25;;;19.38
70435;BMP280;57876;47.792;12.960;2022-07-11T09:06:34;97384.97;;;19.39
70435;BMP280;57876;47.792;12.960;2022-07-11T09:09:00;97387.72;;;19.39
70435;BMP280;57876;47.792;12.960;2022-07-11T09:11:25;97387.72;;;19.39
70435;BMP280;57876;47.792;12.960;2022-07-11T09:13:49;97385.69;;;19.39
70435;BMP280;57876;47.792;12.960;2022-07-11T09:16:17;97390.44;;;19.39
70435;BMP280;57876;47.792;12.960;2022-07-11T09:18:41;97389.91;;;19.40
70435;BMP280;57876;47.792;12.960;2022-07-11T09:21:10;97389.16;;;19.40
70435;BMP280;57876;47.792;12.960;2022-07-11T09:23:56;97388.44;;;19.39
70435;BMP280;57876;47.792;12.960;2022-07-11T09:26:42;97384.97;;;19.39
70435;BMP280;57876;47.792;12.960;2022-07-11T09:29:14;97385.69;;;19.39
70435;BMP280;57876;47.792;12.960;2022-07-11T09:31:43;97382.97;;;19.39
70435;BMP280;57876;47.792;12.960;2022-07-11T09:34:16;97397.41;;;19.40
70435;BMP280;57876;47.792;12.960;2022-07-11T09:39:17;97384.97;;;19.39
70435;BMP280;57876;47.792;12.960;2022-07-11T09:41:42;97396.13;;;19.41
70435;BMP280;57876;47.792;12.960;2022-07-11T09:44:12;97394.66;;;19.40
70435;BMP280;57876;47.792;12.960;2022-07-11T09:46:37;97387.72;;;19.39
70435;BMP280;57876;47.792;12.960;2022-07-11T09:52:06;97395.22;;;19.38
70435;BMP280;57876;47.792;12.960;2022-07-11T09:54:31;97399.97;;;19.38
70435;BMP280;57876;47.792;12.960;2022-07-11T09:56:55;97402.72;;;19.38
70435;BMP280;57876;47.792;12.960;2022-07-11T09:59:19;97396.53;;;19.38
70435;BMP280;57876;47.792;12.960;2022-07-11T10:01:46;97395.22;;;19.38
70435;BMP280;57876;47.792;12.960;2022-07-11T10:04:11;97392.47;;;19.38
70435;BMP280;57876;47.792;12.960;2022-07-11T10:06:37;97397.97;;;19.38
70435;BMP280;57876;47.792;12.960;2022-07-11T10:09:03;97394.47;;;19.38
70435;BMP280;57876;47.792;12.960;2022-07-11T10:11:30;97395.94;;;19.39
70435;BMP280;57876;47.792;12.960;2022-07-11T10:13:54;97393.94;;;19.39
70435;BMP280;57876;47.792;12.960;2022-07-11T10:22:02;97401.63;;;19.41
70435;BMP280;57876;47.792;12.960;2022-07-11T10:24:36;97394.66;;;19.40
70435;BMP280;57876;47.792;12.960;2022-07-11T10:27:08;97392.66;;;19.40
70435;BMP280;57876;47.792;12.960;2022-07-11T10:29:43;97396.13;;;19.41
70435;BMP280;57876;47.792;12.960;2022-07-11T10:32:11;97401.63;;;19.41
70435;BMP280;57876;47.792;12.960;2022-07-11T10:34:38;97401.63;;;19.41
70435;BMP280;57876;47.792;12.960;2022-07-11T10:37:07;97393.94;;;19.39
70435;BMP280;57876;47.792;12.960;2022-07-11T10:39:37;97404.16;;;19.39
70435;BMP280;57876;47.792;12.960;2022-07-11T10:42:38;97401.63;;;19.41
70435;BMP280;57876;47.792;12.960;2022-07-11T10:45:07;97397.97;;;19.38
70435;BMP280;57876;47.792;12.960;2022-07-11T10:47:38;97402.16;;;19.39
70435;BMP280;57876;47.792;12.960;2022-07-11T10:50:13;97397.97;;;19.38
70435;BMP280;57876;47.792;12.960;2022-07-11T10:52:43;97405.63;;;19.40
70435;BMP280;57876;47.792;12.960;2022-07-11T10:55:30;97404.38;;;19.41
70435;BMP280;57876;47.792;12.960;2022-07-11T11:00:23;97400.34;;;19.42
70435;BMP280;57876;47.792;12.960;2022-07-11T11:03:05;97396.13;;;19.41
70435;BMP280;57876;47.792;12.960;2022-07-11T11:05:49;97402.34;;;19.41
70435;BMP280;57876;47.792;12.960;2022-07-11T11:11:01;97392.78;;;19.42
70435;BMP280;57876;47.792;12.960;2022-07-11T11:13:26;97397.59;;;19.42
70435;BMP280;57876;47.792;12.960;2022-07-11T11:15:52;97407.25;;;19.43
70435;BMP280;57876;47.792;12.960;2022-07-11T11:27:00;97401.75;;;19.43
70435;BMP280;57876;47.792;12.960;2022-07-11T11:29:27;97403.09;;;19.42
70435;BMP280;57876;47.792;12.960;2022-07-11T11:31:55;97396.28;;;19.43
70435;BMP280;57876;47.792;12.960;2022-07-11T11:34:20;97410.00;;;19.43
70435;BMP280;57876;47.792;12.960;2022-07-11T11:36:51;97404.50;;;19.43
70435;BMP280;57876;47.792;12.960;2022-07-11T11:39:27;97405.22;;;19.43
70435;BMP280;57876;47.792;12.960;2022-07-11T11:41:52;97402.47;;;19.43
70435;BMP280;57876;47.792;12.960;2022-07-11T11:44:16;97399.03;;;19.43
70435;BMP280;57876;47.792;12.960;2022-07-11T11:46:40;97402.47;;;19.43
70435;BMP280;57876;47.792;12.960;2022-07-11T11:49:05;97403.09;;;19.42
70435;BMP280;57876;47.792;12.960;2022-07-11T11:51:31;97403.78;;;19.42
70435;BMP280;57876;47.792;12.960;2022-07-11T11:53:58;97401.03;;;19.42
70435;BMP280;57876;47.792;12.960;2022-07-11T11:58:56;97394.84;;;19.42
70435;BMP280;57876;47.792;12.960;2022-07-11T12:01:25;97404.50;;;19.43
70435;BMP280;57876;47.792;12.960;2022-07-11T12:03:55;97396.84;;;19.41
70435;BMP280;57876;47.792;12.960;2022-07-11T12:06:29;97405.09;;;19.41
70435;BMP280;57876;47.792;12.960;2022-07-11T12:09:05;97405.09;;;19.41
70435;BMP280;57876;47.792;12.960;2022-07-11T12:11:31;97410.00;;;19.43
70435;BMP280;57876;47.792;12.960;2022-07-11T12:14:02;97409.25;;;19.42
70435;BMP280;57876;47.792;12.960;2022-07-11T12:16:30;97408.72;;;19.44
70435;BMP280;57876;47.792;12.960;2022-07-11T12:19:06;97407.25;;;19.43
70435;BMP280;57876;47.792;12.960;2022-07-11T12:21:32;97412.91;;;19.45
70435;BMP280;57876;47.792;12.960;2022-07-11T12:23:59;97412.00;;;19.42
70435;BMP280;57876;47.792;12.960;2022-07-11T12:26:27;97420.97;;;19.43
70435;BMP280;57876;47.792;12.960;2022-07-11T12:29:18;97412.75;;;19.43
70435;BMP280;57876;47.792;12.960;2022-07-11T12:31:55;97412.59;;;19.41
70435;BMP280;57876;47.792;12.960;2022-07-11T12:34:31;97407.81;;;19.41
70435;BMP280;57876;47.792;12.960;2022-07-11T12:37:54;97407.81;;;19.41
70435;BMP280;57876;47.792;12.960;2022-07-11T12:40:29;97409.84;;;19.41
70435;BMP280;57876;47.792;12.960;2022-07-11T12:43:01;97398.13;;;19.40
70435;BMP280;57876;47.792;12.960;2022-07-11T12:46:00;97401.63;;;19.41
70435;BMP280;57876;47.792;12.960;2022-07-11T12:48:37;97405.09;;;19.41
70435;BMP280;57876;47.792;12.960;2022-07-11T12:51:02;97400.13;;;19.40
70435;BMP280;57876;47.792;12.960;2022-07-11T12:53:28;97404.38;;;19.41
70435;BMP280;57876;47.792;12.960;2022-07-11T12:55:53;97403.63;;;19.40
70435;BMP280;57876;47.792;12.960;2022-07-11T12:58:20;97398.13;;;19.40
70435;BMP280;57876;47.792;12.960;2022-07-11T13:00:58;97403.09;;;19.42
70435;BMP280;57876;47.792;12.960;2022-07-11T13:03:30;97390.66;;;19.41
70435;BMP280;57876;47.792;12.960;2022-07-11T13:05:56;97401.63;;;19.41
70435;BMP280;57876;47.792;12.960;2022-07-11T13:08:25;97399.59;;;19.41
70435;BMP280;57876;47.792;12.960;2022-07-11T13:11:19;97401.03;;;19.42
70435;BMP280;57876;47.792;12.960;2022-07-11T13:13:44;97403.09;;;19.42
70435;BMP280;57876;47.792;12.960;2022-07-11T13:16:11;97403.09;;;19.42
70435;BMP280;57876;47.792;12.960;2022-07-11T13:18:36;97403.09;;;19.42
70435;BMP280;57876;47.792;12.960;2022-07-11T13:21:01;97397.59;;;19.42
70435;BMP280;57876;47.792;12.960;2022-07-11T13:23:26;97400.34;;;19.42
70435;BMP280;57876;47.792;12.960;2022-07-11T13:25:50;97407.25;;;19.43
70435;BMP280;57876;47.792;12.960;2022-07-11T13:28:15;97403.78;;;19.42
70435;BMP280;57876;47.792;12.960;2022-07-11T13:30:39;97404.38;;;19.41
70435;BMP280;57876;47.792;12.960;2022-07-11T13:33:04;97406.50;;;19.42
70435;BMP280;57876;47.792;12.960;2022-07-11T13:35:28;97392.78;;;19.42
70435;BMP280;57876;47.792;12.960;2022-07-11T13:37:53;97396.28;;;19.43
70435;BMP280;57876;47.792;12.960;2022-07-11T13:40:20;97400.34;;;19.42
70435;BMP280;57876;47.792;12.960;2022-07-11T13:42:45;97403.09;;;19.42
70435;BMP280;57876;47.792;12.960;2022-07-11T13:45:10;97398.28;;;19.42
70435;BMP280;57876;47.792;12.960;2022-07-11T13:47:35;97392.78;;;19.42
70435;BMP280;57876;47.792;12.960;2022-07-11T13:50:00;97399.75;;;19.43
70435;BMP280;57876;47.792;12.960;2022-07-11T13:52:25;97399.03;;;19.43
70435;BMP280;57876;47.792;12.960;2022-07-11T13:54:49;97392.09;;;19.42
70435;BMP280;57876;47.792;12.960;2022-07-11T13:57:14;97391.38;;;19.41
70435;BMP280;57876;47.792;12.960;2022-07-11T13:59:38;97390.03;;;19.42
70435;BMP280;57876;47.792;12.960;2022-07-11T14:02:03;97387.31;;;19.42
70435;BMP280;57876;47.792;12.960;2022-07-11T14:04:28;97396.28;;;19.43
70435;BMP280;57876;47.792;12.960;2022-07-11T14:06:53;97403.22;;;19.44
70435;BMP280;57876;47.792;12.960;2022-07-11T14:09:18;97395.53;;;19.42
70435;BMP280;57876;47.792;12.960;2022-07-11T14:11:43;97399.03;;;19.43
70435;BMP280;57876;47.792;12.960;2022-07-11T14:14:09;97405.97;;;19.44
70435;BMP280;57876;47.792;12.960;2022-07-11T14:16:33;97399.75;;;19.43
70435;BMP280;57876;47.792;12.960;2022-07-11T14:18:57;97403.22;;;19.44
70435;BMP280;57876;47.792;12.960;2022-07-11T14:21:24;97405.97;;;19.44